Time;durP1;ratioP1;P1;durP2;ratioP2;P2;SDS_P1;SDS_P2;PMS_P1;PMS_P2;Temp;Humidity;BMP_temperature;BMP_pressure;BME280_temperature;BME280_humidity;BME280_pressure;Samples;Min_cycle;Max_cycle;Signal;HPM_P1;HPM_P2
2021/07/05 00:00:08;;;;;;;3.20;1.40;;;;;;;;;;1493337;39;20051;-57
2021/07/05 00:01:09;;;;;;;3.13;1.35;;;;;;;;;;1493210;39;20031;-57
2021/07/05 00:02:11;;;;;;;3.17;1.52;;;;;;;;;;1493304;39;20035;-58
2021/07/05 00:03:12;;;;;;;2.45;1.40;;;;;;;;;;1493277;39;20024;-58
2021/07/05 00:04:14;;;;;;;3.90;1.40;;;;;;;;;;1493245;39;20307;-58
2021/07/05 00:05:16;;;;;;;2.38;1.42;;;;;;;;;;1493307;39;20047;-58
2021/07/05 00:06:18;;;;;;;3.45;1.42;;;;;;;;;;1493362;39;20379;-57
2021/07/05 00:07:20;;;;;;;3.28;1.48;;;;;;;;;;1493223;39;20035;-58
2021/07/05 00:08:22;;;;;;;2.95;1.55;;;;;;;;;;1493229;39;20035;-57
2021/07/05 00:09:22;;;;;;;3.08;1.40;;;;;;;;;;1493117;39;20024;-57
2021/07/05 00:10:26;;;;;;;3.28;1.40;;;;;;;;;;1493273;39;20292;-58
2021/07/05 00:11:27;;;;;;;2.42;1.20;;;;;;;;;;1493081;39;20024;-58
2021/07/05 00:12:29;;;;;;;3.03;1.38;;;;;;;;;;1493289;39;20030;-58
2021/07/05 00:13:30;;;;;;;2.25;1.23;;;;;;;;;;1493173;39;20291;-58
2021/07/05 00:14:32;;;;;;;3.40;1.40;;;;;;;;;;1493108;39;20020;-58
2021/07/05 00:15:34;;;;;;;3.10;1.50;;;;;;;;;;1493116;39;20047;-58
2021/07/05 00:16:37;;;;;;;2.90;1.30;;;;;;;;;;1493325;39;20120;-58
2021/07/05 00:17:39;;;;;;;3.30;1.77;;;;;;;;;;1493316;39;20040;-58
2021/07/05 00:18:41;;;;;;;2.78;1.48;;;;;;;;;;1493099;39;20024;-58
2021/07/05 00:19:42;;;;;;;4.65;1.40;;;;;;;;;;1493180;39;20287;-58
2021/07/05 00:20:46;;;;;;;2.63;1.23;;;;;;;;;;1493319;39;20020;-58
2021/07/05 00:21:47;;;;;;;6.32;1.48;;;;;;;;;;1493061;39;20035;-58
2021/07/05 00:22:49;;;;;;;3.03;1.60;;;;;;;;;;1493151;39;20032;-58
2021/07/05 00:23:50;;;;;;;2.20;1.25;;;;;;;;;;1493371;39;20028;-58
2021/07/05 00:24:52;;;;;;;3.25;1.40;;;;;;;;;;1493153;39;20032;-58
2021/07/05 00:25:53;;;;;;;3.50;1.50;;;;;;;;;;1493228;39;20024;-58
2021/07/05 00:26:55;;;;;;;2.92;1.40;;;;;;;;;;1492993;39;20319;-58
2021/07/05 00:27:56;;;;;;;4.55;1.30;;;;;;;;;;1493146;39;20028;-58
2021/07/05 00:28:58;;;;;;;3.35;1.45;;;;;;;;;;1493309;39;20016;-58
2021/07/05 00:29:59;;;;;;;2.33;1.30;;;;;;;;;;1493146;39;20046;-58
2021/07/05 00:31:01;;;;;;;2.53;1.27;;;;;;;;;;1493214;39;20027;-58
2021/07/05 00:32:02;;;;;;;3.58;1.75;;;;;;;;;;1493048;39;20031;-58
2021/07/05 00:33:04;;;;;;;4.07;1.40;;;;;;;;;;1493327;39;20035;-58
2021/07/05 00:34:05;;;;;;;2.40;1.42;;;;;;;;;;1493014;39;20032;-58
2021/07/05 00:35:08;;;;;;;2.40;1.27;;;;;;;;;;1493415;39;20124;-57
2021/07/05 00:36:10;;;;;;;3.45;1.40;;;;;;;;;;1493105;39;20019;-58
2021/07/05 00:37:12;;;;;;;2.50;1.45;;;;;;;;;;1493220;39;20383;-57
2021/07/05 00:38:14;;;;;;;2.42;1.35;;;;;;;;;;1493069;39;20024;-58
2021/07/05 00:39:15;;;;;;;2.42;1.30;;;;;;;;;;1493060;39;20028;-57
2021/07/05 00:40:18;;;;;;;3.45;1.33;;;;;;;;;;1493272;39;20039;-57
2021/07/05 00:41:18;;;;;;;2.80;1.13;;;;;;;;;;1493117;39;20031;-57
2021/07/05 00:42:20;;;;;;;2.97;1.40;;;;;;;;;;1493153;39;20056;-58
2021/07/05 00:43:21;;;;;;;3.55;1.30;;;;;;;;;;1493051;39;20388;-58
2021/07/05 00:44:23;;;;;;;3.38;1.30;;;;;;;;;;1493190;39;20028;-58
2021/07/05 00:45:25;;;;;;;3.42;1.75;;;;;;;;;;1493210;39;20051;-58
2021/07/05 00:46:27;;;;;;;3.30;1.33;;;;;;;;;;1493096;39;20291;-58
2021/07/05 00:47:28;;;;;;;4.30;1.42;;;;;;;;;;1492983;39;20269;-58
2021/07/05 00:48:30;;;;;;;3.55;1.30;;;;;;;;;;1493269;39;20031;-58
2021/07/05 00:49:31;;;;;;;3.03;1.48;;;;;;;;;;1493230;39;20027;-58
2021/07/05 00:50:34;;;;;;;3.83;1.58;;;;;;;;;;1493035;39;20024;-57
2021/07/05 00:51:36;;;;;;;4.03;1.63;;;;;;;;;;1492561;39;20045;-58
2021/07/05 00:52:39;;;;;;;4.25;1.40;;;;;;;;;;1492800;39;20064;-58
2021/07/05 00:53:40;;;;;;;5.93;1.70;;;;;;;;;;1493150;39;20047;-58
2021/07/05 00:54:42;;;;;;;4.32;1.65;;;;;;;;;;1493110;39;20031;-57
2021/07/05 00:55:46;;;;;;;2.58;1.58;;;;;;;;;;1493029;39;20283;-58
2021/07/05 00:56:47;;;;;;;3.40;1.63;;;;;;;;;;1493209;39;20071;-57
2021/07/05 00:57:49;;;;;;;3.42;1.48;;;;;;;;;;1493165;39;20024;-58
2021/07/05 00:58:51;;;;;;;3.47;1.40;;;;;;;;;;1492946;39;20412;-58
2021/07/05 00:59:55;;;;;;;3.70;1.85;;;;;;;;;;1493018;39;20098;-58
2021/07/05 01:00:56;;;;;;;3.78;1.45;;;;;;;;;;1493441;39;20020;-57
2021/07/05 01:01:57;;;;;;;4.47;1.55;;;;;;;;;;1492976;39;20020;-57
2021/07/05 01:03:00;;;;;;;4.63;1.48;;;;;;;;;;1493280;39;20035;-58
2021/07/05 01:04:00;;;;;;;3.95;1.77;;;;;;;;;;1492993;39;20396;-57
2021/07/05 01:05:02;;;;;;;4.22;1.60;;;;;;;;;;1493131;39;20024;-58
2021/07/05 01:06:03;;;;;;;3.45;1.65;;;;;;;;;;1493014;39;20020;-58
2021/07/05 01:07:07;;;;;;;3.78;1.40;;;;;;;;;;1493063;39;20399;-58
2021/07/05 01:08:08;;;;;;;3.17;1.50;;;;;;;;;;1492969;39;20039;-58
2021/07/05 01:09:09;;;;;;;4.13;1.40;;;;;;;;;;1493196;39;20023;-58
2021/07/05 01:10:11;;;;;;;3.33;1.33;;;;;;;;;;1493033;39;20024;-58
2021/07/05 01:11:13;;;;;;;3.83;1.45;;;;;;;;;;1493219;39;20387;-58
2021/07/05 01:12:14;;;;;;;3.45;1.40;;;;;;;;;;1492875;39;20034;-58
2021/07/05 01:13:16;;;;;;;4.05;1.55;;;;;;;;;;1493012;39;20080;-58
2021/07/05 01:14:17;;;;;;;3.97;1.45;;;;;;;;;;1493036;39;20090;-58
2021/07/05 01:15:22;;;;;;;5.63;2.13;;;;;;;;;;1493027;39;20074;-58
2021/07/05 01:16:23;;;;;;;5.80;1.67;;;;;;;;;;1493171;39;20027;-58
2021/07/05 01:17:25;;;;;;;3.28;1.63;;;;;;;;;;1493005;39;20032;-58
2021/07/05 01:18:27;;;;;;;4.63;1.73;;;;;;;;;;1492976;39;20031;-57
2021/07/05 01:19:28;;;;;;;3.47;1.90;;;;;;;;;;1493161;39;20422;-58
2021/07/05 01:20:32;;;;;;;3.50;1.70;;;;;;;;;;1493050;39;20024;-58
2021/07/05 01:21:35;;;;;;;4.90;1.77;;;;;;;;;;1493099;39;20032;-57
2021/07/05 01:22:36;;;;;;;5.47;1.77;;;;;;;;;;1492949;39;20028;-58
2021/07/05 01:23:38;;;;;;;5.38;1.92;;;;;;;;;;1493262;39;20031;-58
2021/07/05 01:24:39;;;;;;;4.53;1.55;;;;;;;;;;1492967;39;20031;-58
2021/07/05 01:25:41;;;;;;;3.47;1.67;;;;;;;;;;1493081;39;20024;-58
2021/07/05 01:26:42;;;;;;;3.30;1.45;;;;;;;;;;1492922;39;20032;-58
2021/07/05 01:27:45;;;;;;;4.20;1.60;;;;;;;;;;1493237;39;20024;-58
2021/07/05 01:28:47;;;;;;;5.15;1.67;;;;;;;;;;1493042;39;20027;-57
2021/07/05 01:29:48;;;;;;;3.40;1.80;;;;;;;;;;1492918;39;20024;-57
2021/07/05 01:30:50;;;;;;;2.85;1.75;;;;;;;;;;1493011;39;20024;-58
2021/07/05 01:31:51;;;;;;;3.47;1.67;;;;;;;;;;1492908;39;20020;-57
2021/07/05 01:32:55;;;;;;;4.13;1.80;;;;;;;;;;1493035;39;20027;-58
2021/07/05 01:33:55;;;;;;;4.68;1.98;;;;;;;;;;1493039;39;20035;-58
2021/07/05 01:34:57;;;;;;;3.67;1.50;;;;;;;;;;1493061;39;20394;-58
2021/07/05 01:35:58;;;;;;;2.42;1.33;;;;;;;;;;1492973;39;20024;-57
2021/07/05 01:37:03;;;;;;;2.72;1.50;;;;;;;;;;1493229;39;20028;-57
2021/07/05 01:38:09;;;;;;;3.05;1.40;;;;;;;;;;1493121;39;20025;-58
2021/07/05 01:39:11;;;;;;;4.32;1.90;;;;;;;;;;1493136;39;20357;-58
2021/07/05 01:40:16;;;;;;;3.47;1.45;;;;;;;;;;1492999;39;20291;-58
2021/07/05 01:41:20;;;;;;;4.32;1.67;;;;;;;;;;1493018;39;20101;-57
2021/07/05 01:42:20;;;;;;;3.50;1.60;;;;;;;;;;1492813;39;20031;-58
2021/07/05 01:43:24;;;;;;;3.42;1.52;;;;;;;;;;1493068;39;20283;-57
2021/07/05 01:44:25;;;;;;;3.08;1.55;;;;;;;;;;1492996;39;20142;-57
2021/07/05 01:45:28;;;;;;;2.72;1.67;;;;;;;;;;1493139;39;20055;-58
2021/07/05 01:46:29;;;;;;;2.30;1.42;;;;;;;;;;1492887;39;20285;-57
2021/07/05 01:47:31;;;;;;;3.42;1.48;;;;;;;;;;1493152;39;20031;-58
2021/07/05 01:48:32;;;;;;;3.10;1.63;;;;;;;;;;1493057;39;20027;-58
2021/07/05 01:49:34;;;;;;;4.32;1.50;;;;;;;;;;1492973;39;20430;-57
2021/07/05 01:50:35;;;;;;;3.80;1.70;;;;;;;;;;1492824;39;20046;-58
2021/07/05 01:51:37;;;;;;;3.28;1.70;;;;;;;;;;1492840;39;20040;-57
2021/07/05 01:52:39;;;;;;;3.30;1.60;;;;;;;;;;1492828;39;20024;-57
2021/07/05 01:53:41;;;;;;;2.97;1.85;;;;;;;;;;1492995;39;20295;-57
2021/07/05 01:54:42;;;;;;;4.07;1.85;;;;;;;;;;1492836;39;20024;-58
2021/07/05 01:55:44;;;;;;;4.32;1.77;;;;;;;;;;1493133;39;20390;-57
2021/07/05 01:56:46;;;;;;;3.20;1.48;;;;;;;;;;1492950;39;20031;-57
2021/07/05 01:57:47;;;;;;;4.63;1.85;;;;;;;;;;1493257;39;20031;-58
2021/07/05 01:58:48;;;;;;;3.78;1.60;;;;;;;;;;1492898;39;20082;-58
2021/07/05 01:59:49;;;;;;;5.55;2.03;;;;;;;;;;1493018;39;20098;-58
2021/07/05 02:00:52;;;;;;;4.65;1.73;;;;;;;;;;1492985;39;20291;-57
2021/07/05 02:01:53;;;;;;;3.55;1.50;;;;;;;;;;1492767;39;20284;-57
2021/07/05 02:02:56;;;;;;;3.33;1.65;;;;;;;;;;1492904;39;20048;-57
2021/07/05 02:03:57;;;;;;;2.72;1.50;;;;;;;;;;1492791;39;20024;-58
2021/07/05 02:04:59;;;;;;;4.25;1.60;;;;;;;;;;1492936;39;20028;-58
2021/07/05 02:06:00;;;;;;;4.80;1.90;;;;;;;;;;1492777;39;20021;-58
2021/07/05 02:07:01;;;;;;;6.05;1.77;;;;;;;;;;1492911;39;20395;-58
2021/07/05 02:08:05;;;;;;;4.28;1.90;;;;;;;;;;1492777;39;20020;-58
2021/07/05 02:09:08;;;;;;;3.90;1.60;;;;;;;;;;1492939;39;20035;-58
2021/07/05 02:10:11;;;;;;;3.75;1.98;;;;;;;;;;1492940;39;20024;-57
2021/07/05 02:11:13;;;;;;;3.55;1.70;;;;;;;;;;1492400;39;20036;-57
2021/07/05 02:12:14;;;;;;;2.80;1.60;;;;;;;;;;1492766;39;20092;-59
2021/07/05 02:13:19;;;;;;;3.75;1.90;;;;;;;;;;1493076;39;20064;-57
2021/07/05 02:14:20;;;;;;;4.25;1.75;;;;;;;;;;1492813;39;20296;-58
2021/07/05 02:15:23;;;;;;;4.15;1.77;;;;;;;;;;1493096;39;20039;-58
2021/07/05 02:16:24;;;;;;;4.15;1.55;;;;;;;;;;1492790;39;20399;-57
2021/07/05 02:17:27;;;;;;;2.83;1.60;;;;;;;;;;1493018;39;20032;-58
2021/07/05 02:18:29;;;;;;;4.20;1.70;;;;;;;;;;1492782;39;20407;-58
2021/07/05 02:19:31;;;;;;;4.53;1.88;;;;;;;;;;1492825;39;20031;-58
2021/07/05 02:20:33;;;;;;;5.95;1.88;;;;;;;;;;1492775;39;20028;-58
2021/07/05 02:21:34;;;;;;;8.23;2.00;;;;;;;;;;1492889;39;20068;-58
2021/07/05 02:22:36;;;;;;;4.43;1.73;;;;;;;;;;1492837;39;20028;-57
2021/07/05 02:23:39;;;;;;;5.22;2.00;;;;;;;;;;1492893;39;20043;-58
2021/07/05 02:24:40;;;;;;;4.03;1.73;;;;;;;;;;1492729;39;20020;-57
2021/07/05 02:25:43;;;;;;;3.03;1.77;;;;;;;;;;1492888;39;20031;-58
2021/07/05 02:26:44;;;;;;;4.43;1.80;;;;;;;;;;1492696;39;20027;-58
2021/07/05 02:27:47;;;;;;;4.63;2.08;;;;;;;;;;1493105;39;20031;-58
2021/07/05 02:28:48;;;;;;;7.88;1.88;;;;;;;;;;1492682;39;20295;-58
2021/07/05 02:29:50;;;;;;;4.13;1.65;;;;;;;;;;1492985;39;20060;-58
2021/07/05 02:30:51;;;;;;;5.38;2.05;;;;;;;;;;1492701;39;20392;-57
2021/07/05 02:31:53;;;;;;;3.53;1.80;;;;;;;;;;1493020;39;20372;-57
2021/07/05 02:32:56;;;;;;;4.03;1.77;;;;;;;;;;1492802;39;20032;-58
2021/07/05 02:33:58;;;;;;;7.32;2.00;;;;;;;;;;1492879;39;20032;-58
2021/07/05 02:34:59;;;;;;;3.83;1.80;;;;;;;;;;1492722;39;20031;-58
2021/07/05 02:36:02;;;;;;;4.88;2.13;;;;;;;;;;1492939;39;20024;-58
2021/07/05 02:37:04;;;;;;;4.53;1.80;;;;;;;;;;1492639;39;20028;-58
2021/07/05 02:38:08;;;;;;;4.20;1.55;;;;;;;;;;1492678;39;20035;-58
2021/07/05 02:39:10;;;;;;;4.53;1.92;;;;;;;;;;1492712;39;20030;-58
2021/07/05 02:40:16;;;;;;;7.38;2.00;;;;;;;;;;1492750;39;20024;-58
2021/07/05 02:41:17;;;;;;;3.25;1.90;;;;;;;;;;1492695;39;20411;-58
2021/07/05 02:42:19;;;;;;;4.03;1.85;;;;;;;;;;1492871;39;20062;-58
2021/07/05 02:43:22;;;;;;;4.75;1.77;;;;;;;;;;1492171;39;20031;-58
2021/07/05 02:44:24;;;;;;;3.70;2.13;;;;;;;;;;1492288;39;20036;-58
2021/07/05 02:45:27;;;;;;;2.63;1.67;;;;;;;;;;1492769;39;20047;-58
2021/07/05 02:46:29;;;;;;;4.35;1.70;;;;;;;;;;1492919;39;20030;-57
2021/07/05 02:47:30;;;;;;;6.30;1.98;;;;;;;;;;1492697;39;20375;-58
2021/07/05 02:48:32;;;;;;;4.13;2.05;;;;;;;;;;1492750;39;20024;-58
2021/07/05 02:49:33;;;;;;;3.70;1.88;;;;;;;;;;1492667;39;20043;-58
2021/07/05 02:50:36;;;;;;;5.10;2.40;;;;;;;;;;1492694;39;20036;-58
2021/07/05 02:51:37;;;;;;;3.03;1.60;;;;;;;;;;1492725;39;20388;-58
2021/07/05 02:52:38;;;;;;;3.75;1.90;;;;;;;;;;1492826;39;20024;-58
2021/07/05 02:53:39;;;;;;;3.72;2.10;;;;;;;;;;1492766;39;20028;-58
2021/07/05 02:54:43;;;;;;;5.13;1.90;;;;;;;;;;1492777;39;20028;-57
2021/07/05 02:55:44;;;;;;;4.82;1.92;;;;;;;;;;1492634;39;20279;-58
2021/07/05 02:56:45;;;;;;;3.20;1.90;;;;;;;;;;1492826;39;20035;-58
2021/07/05 02:57:47;;;;;;;4.35;2.17;;;;;;;;;;1492674;39;20399;-58
2021/07/05 02:58:49;;;;;;;4.30;2.10;;;;;;;;;;1492605;39;20483;-57
2021/07/05 02:59:50;;;;;;;3.38;2.03;;;;;;;;;;1492707;39;20035;-58
2021/07/05 03:00:55;;;;;;;3.45;2.03;;;;;;;;;;1492850;39;20024;-58
2021/07/05 03:01:56;;;;;;;5.47;2.00;;;;;;;;;;1492812;39;20020;-58
2021/07/05 03:02:58;;;;;;;3.67;1.77;;;;;;;;;;1492795;39;20028;-58
2021/07/05 03:03:59;;;;;;;3.88;1.98;;;;;;;;;;1492702;39;20290;-58
2021/07/05 03:05:01;;;;;;;6.50;2.10;;;;;;;;;;1492790;39;20028;-58
2021/07/05 03:06:04;;;;;;;2.90;1.85;;;;;;;;;;1492670;39;20024;-58
2021/07/05 03:07:04;;;;;;;5.10;2.17;;;;;;;;;;1492505;39;20110;-57
2021/07/05 03:08:07;;;;;;;3.40;2.05;;;;;;;;;;1492658;39;20100;-58
2021/07/05 03:09:08;;;;;;;4.35;2.00;;;;;;;;;;1492678;39;20024;-58
2021/07/05 03:10:13;;;;;;;6.60;2.30;;;;;;;;;;1492593;39;20020;-58
2021/07/05 03:11:14;;;;;;;3.72;2.22;;;;;;;;;;1492698;39;20028;-58
2021/07/05 03:12:16;;;;;;;3.75;1.90;;;;;;;;;;1492515;39;20427;-59
2021/07/05 03:13:19;;;;;;;3.88;2.00;;;;;;;;;;1492600;39;20035;-58
2021/07/05 03:14:21;;;;;;;6.55;2.42;;;;;;;;;;1492604;39;20024;-58
2021/07/05 03:15:22;;;;;;;5.45;2.10;;;;;;;;;;1492721;39;20024;-58
2021/07/05 03:16:24;;;;;;;3.38;2.20;;;;;;;;;;1492757;39;20402;-58
2021/07/05 03:17:25;;;;;;;5.38;1.90;;;;;;;;;;1492610;39;20027;-58
2021/07/05 03:18:27;;;;;;;4.70;2.20;;;;;;;;;;1492909;39;20028;-58
2021/07/05 03:19:28;;;;;;;5.60;2.40;;;;;;;;;;1492657;39;20035;-58
2021/07/05 03:20:32;;;;;;;6.40;1.90;;;;;;;;;;1492028;39;20027;-58
2021/07/05 03:21:32;;;;;;;8.02;2.25;;;;;;;;;;1492091;39;20024;-58
2021/07/05 03:22:35;;;;;;;4.30;2.10;;;;;;;;;;1492571;39;20066;-57
2021/07/05 03:23:35;;;;;;;4.22;2.00;;;;;;;;;;1493056;39;20024;-57
2021/07/05 03:24:37;;;;;;;5.15;2.30;;;;;;;;;;1493334;39;20383;-58
2021/07/05 03:25:41;;;;;;;5.35;2.22;;;;;;;;;;1493298;39;20031;-58
2021/07/05 03:26:41;;;;;;;3.42;2.30;;;;;;;;;;1493405;39;20024;-58
2021/07/05 03:27:43;;;;;;;6.53;2.15;;;;;;;;;;1493166;39;20279;-58
2021/07/05 03:28:45;;;;;;;4.03;2.03;;;;;;;;;;1493311;39;20024;-58
2021/07/05 03:29:46;;;;;;;3.60;2.35;;;;;;;;;;1493309;39;20024;-58
2021/07/05 03:30:50;;;;;;;5.07;2.08;;;;;;;;;;1493451;39;20020;-58
2021/07/05 03:31:51;;;;;;;5.57;1.95;;;;;;;;;;1493363;39;20027;-58
2021/07/05 03:32:54;;;;;;;3.30;1.98;;;;;;;;;;1493344;39;20051;-58
2021/07/05 03:33:55;;;;;;;3.95;2.00;;;;;;;;;;1493202;39;20027;-58
2021/07/05 03:34:56;;;;;;;5.28;2.10;;;;;;;;;;1493304;39;20028;-58
2021/07/05 03:35:58;;;;;;;3.45;1.88;;;;;;;;;;1493259;39;20039;-58
2021/07/05 03:37:00;;;;;;;4.65;2.03;;;;;;;;;;1493199;39;20081;-58
2021/07/05 03:38:01;;;;;;;4.05;2.10;;;;;;;;;;1493208;39;20035;-58
2021/07/05 03:39:03;;;;;;;3.92;2.03;;;;;;;;;;1493459;39;20024;-58
2021/07/05 03:40:07;;;;;;;3.13;2.00;;;;;;;;;;1493335;39;20024;-58
2021/07/05 03:41:13;;;;;;;2.97;2.03;;;;;;;;;;1493468;39;20031;-58
2021/07/05 03:42:13;;;;;;;5.82;2.30;;;;;;;;;;1493131;39;20024;-59
2021/07/05 03:43:16;;;;;;;6.32;2.45;;;;;;;;;;1493333;39;20031;-58
2021/07/05 03:44:17;;;;;;;5.13;2.03;;;;;;;;;;1493159;39;20024;-58
2021/07/05 03:45:23;;;;;;;4.50;2.20;;;;;;;;;;1493231;39;20051;-58
2021/07/05 03:46:24;;;;;;;4.22;2.17;;;;;;;;;;1493232;39;20430;-58
2021/07/05 03:47:26;;;;;;;3.95;2.30;;;;;;;;;;1493349;39;20030;-57
2021/07/05 03:48:27;;;;;;;3.28;1.85;;;;;;;;;;1493216;39;20027;-58
2021/07/05 03:49:29;;;;;;;4.20;2.17;;;;;;;;;;1493291;39;20024;-58
2021/07/05 03:50:30;;;;;;;3.47;1.80;;;;;;;;;;1493406;39;20399;-58
2021/07/05 03:51:33;;;;;;;6.05;2.30;;;;;;;;;;1493194;39;20059;-58
2021/07/05 03:52:34;;;;;;;4.90;2.40;;;;;;;;;;1493226;39;20039;-58
2021/07/05 03:53:36;;;;;;;4.18;2.50;;;;;;;;;;1493236;39;20100;-58
2021/07/05 03:54:37;;;;;;;6.28;2.13;;;;;;;;;;1493284;39;20019;-58
2021/07/05 03:55:38;;;;;;;4.05;2.28;;;;;;;;;;1493550;39;20271;-58
2021/07/05 03:56:41;;;;;;;4.78;2.10;;;;;;;;;;1493219;39;20024;-58
2021/07/05 03:57:43;;;;;;;4.43;2.13;;;;;;;;;;1493159;39;20020;-58
2021/07/05 03:58:44;;;;;;;4.10;2.08;;;;;;;;;;1493139;39;20024;-57
2021/07/05 03:59:45;;;;;;;4.85;2.50;;;;;;;;;;1493345;39;20020;-58
2021/07/05 04:00:47;;;;;;;5.38;2.42;;;;;;;;;;1493227;39;20020;-58
2021/07/05 04:01:48;;;;;;;3.47;1.90;;;;;;;;;;1493261;39;20020;-58
2021/07/05 04:02:50;;;;;;;4.30;2.25;;;;;;;;;;1493190;39;20028;-57
2021/07/05 04:03:51;;;;;;;4.55;2.20;;;;;;;;;;1493267;39;20027;-58
2021/07/05 04:04:55;;;;;;;3.58;2.10;;;;;;;;;;1493187;39;20299;-58
2021/07/05 04:05:59;;;;;;;3.78;2.13;;;;;;;;;;1493120;39;20077;-58
2021/07/05 04:06:59;;;;;;;5.10;2.33;;;;;;;;;;1493053;39;20088;-58
2021/07/05 04:08:03;;;;;;;4.55;2.33;;;;;;;;;;1493215;39;20081;-57
2021/07/05 04:09:05;;;;;;;4.03;2.15;;;;;;;;;;1493440;39;20023;-58
2021/07/05 04:10:07;;;;;;;3.95;2.20;;;;;;;;;;1493338;39;20019;-58
2021/07/05 04:11:09;;;;;;;4.53;2.20;;;;;;;;;;1493352;39;20056;-57
2021/07/05 04:12:12;;;;;;;3.72;2.20;;;;;;;;;;1492525;39;20404;-58
2021/07/05 04:13:14;;;;;;;4.28;2.05;;;;;;;;;;1492704;39;20055;-58
2021/07/05 04:14:15;;;;;;;6.10;2.10;;;;;;;;;;1493211;39;20020;-57
2021/07/05 04:15:17;;;;;;;4.95;2.38;;;;;;;;;;1493284;39;20264;-57
2021/07/05 04:16:18;;;;;;;5.68;2.22;;;;;;;;;;1493246;39;20027;-58
2021/07/05 04:17:20;;;;;;;4.72;2.17;;;;;;;;;;1493209;39;20024;-58
2021/07/05 04:18:21;;;;;;;3.40;1.83;;;;;;;;;;1493152;39;20024;-58
2021/07/05 04:19:22;;;;;;;4.63;2.38;;;;;;;;;;1493395;39;20024;-58
2021/07/05 04:20:24;;;;;;;4.03;2.00;;;;;;;;;;1493181;39;20078;-58
2021/07/05 04:21:26;;;;;;;4.35;2.20;;;;;;;;;;1493374;39;20036;-58
2021/07/05 04:22:27;;;;;;;4.70;2.83;;;;;;;;;;1493016;39;20036;-58
2021/07/05 04:23:29;;;;;;;3.97;2.20;;;;;;;;;;1493340;39;20039;-58
2021/07/05 04:24:30;;;;;;;5.05;2.00;;;;;;;;;;1493029;39;20111;-57
2021/07/05 04:25:32;;;;;;;3.38;2.38;;;;;;;;;;1493346;39;20351;-58
2021/07/05 04:26:33;;;;;;;2.95;1.90;;;;;;;;;;1493207;39;20028;-58
2021/07/05 04:27:36;;;;;;;5.32;2.25;;;;;;;;;;1493266;39;20023;-58
2021/07/05 04:28:37;;;;;;;5.00;2.40;;;;;;;;;;1493019;39;20434;-58
2021/07/05 04:29:39;;;;;;;3.75;2.20;;;;;;;;;;1493070;39;20031;-58
2021/07/05 04:30:40;;;;;;;5.43;2.00;;;;;;;;;;1493125;39;20032;-58
2021/07/05 04:31:42;;;;;;;4.15;2.22;;;;;;;;;;1493316;39;20339;-57
2021/07/05 04:32:45;;;;;;;5.10;2.20;;;;;;;;;;1493034;39;20032;-58
2021/07/05 04:33:48;;;;;;;4.20;2.03;;;;;;;;;;1492980;39;20023;-58
2021/07/05 04:34:48;;;;;;;3.72;2.17;;;;;;;;;;1493121;39;20406;-58
2021/07/05 04:35:50;;;;;;;5.57;2.10;;;;;;;;;;1493207;39;20077;-58
2021/07/05 04:36:51;;;;;;;3.75;2.10;;;;;;;;;;1492992;39;20044;-58
2021/07/05 04:37:54;;;;;;;5.18;2.25;;;;;;;;;;1493250;39;20051;-58
2021/07/05 04:38:55;;;;;;;5.43;2.45;;;;;;;;;;1493107;39;20020;-58
2021/07/05 04:39:58;;;;;;;3.03;2.10;;;;;;;;;;1493485;39;20039;-58
2021/07/05 04:41:02;;;;;;;5.68;2.40;;;;;;;;;;1493266;39;20024;-58
2021/07/05 04:42:04;;;;;;;4.00;2.30;;;;;;;;;;1493178;39;20356;-58
2021/07/05 04:43:08;;;;;;;6.22;2.65;;;;;;;;;;1492979;39;20306;-58
2021/07/05 04:44:12;;;;;;;5.18;2.53;;;;;;;;;;1493321;39;20050;-58
2021/07/05 04:45:15;;;;;;;4.75;2.25;;;;;;;;;;1493079;39;20094;-58
2021/07/05 04:46:18;;;;;;;4.93;2.42;;;;;;;;;;1493356;39;20043;-58
2021/07/05 04:47:19;;;;;;;5.88;2.63;;;;;;;;;;1493001;39;20020;-58
2021/07/05 04:48:22;;;;;;;4.22;2.22;;;;;;;;;;1493417;39;20024;-58
2021/07/05 04:49:22;;;;;;;4.22;2.50;;;;;;;;;;1493058;39;20020;-58
2021/07/05 04:50:24;;;;;;;6.40;2.67;;;;;;;;;;1493297;39;20456;-58
2021/07/05 04:51:26;;;;;;;6.28;2.70;;;;;;;;;;1493091;39;20028;-58
2021/07/05 04:52:27;;;;;;;4.00;2.63;;;;;;;;;;1492991;39;20020;-58
2021/07/05 04:53:28;;;;;;;4.47;2.50;;;;;;;;;;1493105;39;20375;-58
2021/07/05 04:54:30;;;;;;;4.63;2.50;;;;;;;;;;1493167;39;20039;-57
2021/07/05 04:55:32;;;;;;;4.78;2.40;;;;;;;;;;1493267;39;20031;-58
2021/07/05 04:56:35;;;;;;;5.35;2.70;;;;;;;;;;1493075;39;20033;-58
2021/07/05 04:57:36;;;;;;;3.63;2.42;;;;;;;;;;1493065;39;20024;-57
2021/07/05 04:58:40;;;;;;;4.68;2.30;;;;;;;;;;1493156;39;20151;-57
2021/07/05 04:59:40;;;;;;;3.45;2.28;;;;;;;;;;1493134;39;20387;-58
2021/07/05 05:00:42;;;;;;;4.25;2.60;;;;;;;;;;1493065;39;20027;-58
2021/07/05 05:01:45;;;;;;;8.23;3.00;;;;;;;;;;1493037;39;20034;-58
2021/07/05 05:02:47;;;;;;;4.47;2.33;;;;;;;;;;1493247;39;20056;-58
2021/07/05 05:03:47;;;;;;;3.88;2.13;;;;;;;;;;1493138;39;20031;-58
2021/07/05 05:04:49;;;;;;;3.88;2.15;;;;;;;;;;1492619;39;20446;-58
2021/07/05 05:05:50;;;;;;;4.07;2.22;;;;;;;;;;1492624;39;20027;-58
2021/07/05 05:06:52;;;;;;;5.80;2.80;;;;;;;;;;1493238;39;20024;-58
2021/07/05 05:07:53;;;;;;;3.20;2.25;;;;;;;;;;1492919;39;20035;-58
2021/07/05 05:08:54;;;;;;;4.70;2.33;;;;;;;;;;1493147;39;20039;-58
2021/07/05 05:10:00;;;;;;;3.42;2.05;;;;;;;;;;1493123;39;20390;-58
2021/07/05 05:11:02;;;;;;;4.72;2.22;;;;;;;;;;1493114;39;20396;-58
2021/07/05 05:12:04;;;;;;;4.40;2.20;;;;;;;;;;1493046;39;20024;-58
2021/07/05 05:13:06;;;;;;;5.90;2.17;;;;;;;;;;1493045;39;20381;-58
2021/07/05 05:14:08;;;;;;;4.40;2.20;;;;;;;;;;1492910;39;20024;-58
2021/07/05 05:15:11;;;;;;;3.95;2.08;;;;;;;;;;1492962;39;20428;-58
2021/07/05 05:16:12;;;;;;;3.30;1.92;;;;;;;;;;1492957;39;20024;-58
2021/07/05 05:17:14;;;;;;;3.92;2.10;;;;;;;;;;1492994;39;20028;-57
2021/07/05 05:18:15;;;;;;;3.30;2.08;;;;;;;;;;1492922;39;20296;-58
2021/07/05 05:19:17;;;;;;;4.78;2.15;;;;;;;;;;1493153;39;20032;-58
2021/07/05 05:20:20;;;;;;;3.17;2.20;;;;;;;;;;1493093;39;20422;-57
2021/07/05 05:21:22;;;;;;;4.85;2.28;;;;;;;;;;1493046;39;20035;-58
2021/07/05 05:22:23;;;;;;;5.25;2.25;;;;;;;;;;1492990;39;20024;-58
2021/07/05 05:23:24;;;;;;;4.32;2.15;;;;;;;;;;1493027;39;20024;-58
2021/07/05 05:24:25;;;;;;;3.85;2.00;;;;;;;;;;1492935;39;20024;-58
2021/07/05 05:25:27;;;;;;;3.50;2.20;;;;;;;;;;1493014;39;20068;-58
2021/07/05 05:26:28;;;;;;;3.45;1.98;;;;;;;;;;1493094;39;20046;-58
2021/07/05 05:27:30;;;;;;;4.28;2.40;;;;;;;;;;1493020;39;20024;-58
2021/07/05 05:28:31;;;;;;;3.72;2.10;;;;;;;;;;1492842;39;20023;-58
2021/07/05 05:29:35;;;;;;;3.85;2.20;;;;;;;;;;1493062;39;20097;-58
2021/07/05 05:30:36;;;;;;;3.92;2.30;;;;;;;;;;1493141;39;20046;-58
2021/07/05 05:31:38;;;;;;;3.03;1.90;;;;;;;;;;1493096;39;20031;-58
2021/07/05 05:32:39;;;;;;;3.28;2.03;;;;;;;;;;1492960;39;20035;-58
2021/07/05 05:33:41;;;;;;;4.20;1.80;;;;;;;;;;1492941;39;20060;-58
2021/07/05 05:34:42;;;;;;;3.42;2.05;;;;;;;;;;1492880;39;20027;-58
2021/07/05 05:35:44;;;;;;;3.83;2.10;;;;;;;;;;1493050;39;20024;-58
2021/07/05 05:36:45;;;;;;;3.67;2.13;;;;;;;;;;1492948;39;20024;-58
2021/07/05 05:37:48;;;;;;;3.10;1.83;;;;;;;;;;1493160;39;20287;-58
2021/07/05 05:38:49;;;;;;;2.78;1.73;;;;;;;;;;1492860;39;20024;-58
2021/07/05 05:39:51;;;;;;;3.63;1.92;;;;;;;;;;1493133;39;20027;-58
2021/07/05 05:40:52;;;;;;;3.28;2.10;;;;;;;;;;1492304;39;20024;-58
2021/07/05 05:41:54;;;;;;;4.05;2.08;;;;;;;;;;1492406;39;20028;-58
2021/07/05 05:42:55;;;;;;;4.13;1.80;;;;;;;;;;1493060;39;20028;-58
2021/07/05 05:44:00;;;;;;;6.47;2.30;;;;;;;;;;1492879;39;20024;-58
2021/07/05 05:45:03;;;;;;;2.88;1.98;;;;;;;;;;1492921;39;20027;-58
2021/07/05 05:46:05;;;;;;;3.63;2.25;;;;;;;;;;1492511;39;20039;-58
2021/07/05 05:47:06;;;;;;;3.30;1.90;;;;;;;;;;1492888;39;20034;-58
2021/07/05 05:48:08;;;;;;;4.10;1.90;;;;;;;;;;1492953;39;20035;-58
2021/07/05 05:49:09;;;;;;;4.97;1.85;;;;;;;;;;1492963;39;20024;-58
2021/07/05 05:50:11;;;;;;;5.10;2.10;;;;;;;;;;1493097;39;20261;-58
2021/07/05 05:51:12;;;;;;;4.38;2.08;;;;;;;;;;1493142;39;20024;-58
2021/07/05 05:52:14;;;;;;;4.72;1.98;;;;;;;;;;1492958;39;20028;-58
2021/07/05 05:53:15;;;;;;;3.33;1.90;;;;;;;;;;1492900;39;20295;-58
2021/07/05 05:54:17;;;;;;;3.67;2.05;;;;;;;;;;1492847;39;20035;-58
2021/07/05 05:55:18;;;;;;;4.32;2.03;;;;;;;;;;1492802;39;20099;-58
2021/07/05 05:56:19;;;;;;;3.10;1.90;;;;;;;;;;1492924;39;20335;-58
2021/07/05 05:57:26;;;;;;;5.93;1.80;;;;;;;;;;1493063;39;20031;-58
2021/07/05 05:58:29;;;;;;;4.30;2.10;;;;;;;;;;1493033;39;20330;-58
2021/07/05 05:59:30;;;;;;;3.95;1.90;;;;;;;;;;1492850;39;20028;-58
2021/07/05 06:00:34;;;;;;;5.30;2.00;;;;;;;;;;1493039;39;20299;-58
2021/07/05 06:01:38;;;;;;;6.38;2.05;;;;;;;;;;1492917;39;20031;-59
2021/07/05 06:02:40;;;;;;;3.85;1.92;;;;;;;;;;1492813;39;20388;-59
2021/07/05 06:03:41;;;;;;;4.00;2.05;;;;;;;;;;1492911;39;20023;-58
2021/07/05 06:04:43;;;;;;;5.18;2.03;;;;;;;;;;1492990;39;20039;-58
2021/07/05 06:05:44;;;;;;;2.80;1.90;;;;;;;;;;1493020;39;20034;-59
2021/07/05 06:06:46;;;;;;;3.70;1.77;;;;;;;;;;1492815;39;20027;-59
2021/07/05 06:07:49;;;;;;;6.93;1.90;;;;;;;;;;1493007;39;20024;-60
2021/07/05 06:08:50;;;;;;;3.30;2.05;;;;;;;;;;1492762;39;20276;-59
2021/07/05 06:09:52;;;;;;;4.57;1.88;;;;;;;;;;1492876;39;20039;-59
2021/07/05 06:10:53;;;;;;;4.18;2.25;;;;;;;;;;1492767;39;20031;-58